sensor_id;sensor_type;location;lat;lon;timestamp;temperature;humidity
10437;DHT22;5265;50.006;9.202;2022-09-06T15:22:15;35.10;96.70
10437;DHT22;5265;50.006;9.202;2022-09-06T15:24:42;35.40;97.90
10437;DHT22;5265;50.006;9.202;2022-09-06T15:27:09;35.30;98.10
10437;DHT22;5265;50.006;9.202;2022-09-06T15:29:36;35.10;98.30
10437;DHT22;5265;50.006;9.202;2022-09-06T15:32:04;34.50;98.20
10437;DHT22;5265;50.006;9.202;2022-09-06T15:34:31;34.20;98.60
10437;DHT22;5265;50.006;9.202;2022-09-06T15:36:58;33.70;98.20
10437;DHT22;5265;50.006;9.202;2022-09-06T15:39:27;32.80;98.40
10437;DHT22;5265;50.006;9.202;2022-09-06T15:41:54;31.90;99.00
10437;DHT22;5265;50.006;9.202;2022-09-06T15:44:21;31.50;99.10
10437;DHT22;5265;50.006;9.202;2022-09-06T15:46:49;31.10;99.50
10437;DHT22;5265;50.006;9.202;2022-09-06T15:49:18;31.00;99.90
10437;DHT22;5265;50.006;9.202;2022-09-06T15:51:46;31.20;99.90
10437;DHT22;5265;50.006;9.202;2022-09-06T15:54:14;31.30;99.80
10437;DHT22;5265;50.006;9.202;2022-09-06T15:56:43;31.30;99.90
10437;DHT22;5265;50.006;9.202;2022-09-06T15:59:10;31.10;99.60
10437;DHT22;5265;50.006;9.202;2022-09-06T16:01:37;31.00;99.70
10437;DHT22;5265;50.006;9.202;2022-09-06T16:04:04;31.00;99.90
10437;DHT22;5265;50.006;9.202;2022-09-06T16:06:33;31.00;99.90
10437;DHT22;5265;50.006;9.202;2022-09-06T16:09:01;30.90;99.90
10437;DHT22;5265;50.006;9.202;2022-09-06T16:11:28;30.80;99.90
10437;DHT22;5265;50.006;9.202;2022-09-06T16:13:58;30.80;99.90
10437;DHT22;5265;50.006;9.202;2022-09-06T16:16:26;30.70;99.90
10437;DHT22;5265;50.006;9.202;2022-09-06T16:18:54;30.60;99.90
10437;DHT22;5265;50.006;9.202;2022-09-06T16:21:22;30.60;99.90
10437;DHT22;5265;50.006;9.202;2022-09-06T16:23:50;30.50;99.90
10437;DHT22;5265;50.006;9.202;2022-09-06T16:26:18;30.40;99.90
10437;DHT22;5265;50.006;9.202;2022-09-06T16:28:46;30.30;99.90
10437;DHT22;5265;50.006;9.202;2022-09-06T16:31:15;30.30;99.90
10437;DHT22;5265;50.006;9.202;2022-09-06T16:33:42;30.10;99.90
10437;DHT22;5265;50.006;9.202;2022-09-06T16:36:10;30.10;99.90
10437;DHT22;5265;50.006;9.202;2022-09-06T16:38:39;30.10;99.90
10437;DHT22;5265;50.006;9.202;2022-09-06T16:41:09;30.00;99.90
10437;DHT22;5265;50.006;9.202;2022-09-06T16:43:38;29.90;99.90
10437;DHT22;5265;50.006;9.202;2022-09-06T16:46:05;29.70;99.90
10437;DHT22;5265;50.006;9.202;2022-09-06T16:48:34;29.50;99.90
10437;DHT22;5265;50.006;9.202;2022-09-06T16:51:08;29.30;99.90
10437;DHT22;5265;50.006;9.202;2022-09-06T16:53:36;29.00;99.90
10437;DHT22;5265;50.006;9.202;2022-09-06T16:56:04;28.70;99.90
10437;DHT22;5265;50.006;9.202;2022-09-06T16:58:31;28.60;99.90
10437;DHT22;5265;50.006;9.202;2022-09-06T17:00:58;28.50;99.90
10437;DHT22;5265;50.006;9.202;2022-09-06T17:03:26;28.30;99.90
10437;DHT22;5265;50.006;9.202;2022-09-06T17:05:55;28.10;99.90
10437;DHT22;5265;50.006;9.202;2022-09-06T17:08:22;27.90;99.90
10437;DHT22;5265;50.006;9.202;2022-09-06T17:10:49;27.90;99.90
10437;DHT22;5265;50.006;9.202;2022-09-06T17:13:17;27.90;99.90
10437;DHT22;5265;50.006;9.202;2022-09-06T17:15:50;27.80;99.90
10437;DHT22;5265;50.006;9.202;2022-09-06T17:18:35;27.80;99.90
10437;DHT22;5265;50.006;9.202;2022-09-06T17:21:04;27.70;99.90
10437;DHT22;5265;50.006;9.202;2022-09-06T17:23:33;27.70;99.90
10437;DHT22;5265;50.006;9.202;2022-09-06T17:26:00;27.60;99.90
10437;DHT22;5265;50.006;9.202;2022-09-06T17:28:28;27.60;99.90
10437;DHT22;5265;50.006;9.202;2022-09-06T17:30:58;27.50;99.90
10437;DHT22;5265;50.006;9.202;2022-09-06T17:33:25;27.40;99.90
10437;DHT22;5265;50.006;9.202;2022-09-06T17:35:52;27.40;99.90
10437;DHT22;5265;50.006;9.202;2022-09-06T17:38:21;27.30;99.90
10437;DHT22;5265;50.006;9.202;2022-09-06T17:40:55;27.20;99.90
10437;DHT22;5265;50.006;9.202;2022-09-06T17:43:22;27.20;99.90
10437;DHT22;5265;50.006;9.202;2022-09-06T17:45:49;27.20;99.90
10437;DHT22;5265;50.006;9.202;2022-09-06T17:48:17;27.20;99.90
10437;DHT22;5265;50.006;9.202;2022-09-06T17:50:44;26.80;99.90
10437;DHT22;5265;50.006;9.202;2022-09-06T17:53:11;26.80;99.90
10437;DHT22;5265;50.006;9.202;2022-09-06T17:55:40;26.60;99.90
10437;DHT22;5265;50.006;9.202;2022-09-06T17:58:09;26.50;99.90
10437;DHT22;5265;50.006;9.202;2022-09-06T18:00:36;26.50;99.90
10437;DHT22;5265;50.006;9.202;2022-09-06T18:03:04;26.40;99.90
10437;DHT22;5265;50.006;9.202;2022-09-06T18:05:33;26.40;99.90
10437;DHT22;5265;50.006;9.202;2022-09-06T18:08:00;26.30;99.90
10437;DHT22;5265;50.006;9.202;2022-09-06T18:10:28;26.20;99.90
10437;DHT22;5265;50.006;9.202;2022-09-06T18:12:56;26.00;99.90
10437;DHT22;5265;50.006;9.202;2022-09-06T18:15:23;26.00;99.90
10437;DHT22;5265;50.006;9.202;2022-09-06T18:17:51;25.90;99.90
10437;DHT22;5265;50.006;9.202;2022-09-06T18:20:18;26.00;99.90
10437;DHT22;5265;50.006;9.202;2022-09-06T18:22:45;26.00;99.90
10437;DHT22;5265;50.006;9.202;2022-09-06T18:25:12;25.80;99.90
10437;DHT22;5265;50.006;9.202;2022-09-06T18:27:40;25.60;99.90
10437;DHT22;5265;50.006;9.202;2022-09-06T18:30:09;25.50;99.90
10437;DHT22;5265;50.006;9.202;2022-09-06T18:32:36;25.30;99.90
10437;DHT22;5265;50.006;9.202;2022-09-06T18:35:05;25.00;99.90
10437;DHT22;5265;50.006;9.202;2022-09-06T18:37:33;24.80;99.90
10437;DHT22;5265;50.006;9.202;2022-09-06T18:40:00;24.40;99.90
10437;DHT22;5265;50.006;9.202;2022-09-06T18:42:28;24.30;99.90
10437;DHT22;5265;50.006;9.202;2022-09-06T18:44:55;24.30;99.90
10437;DHT22;5265;50.006;9.202;2022-09-06T18:47:24;24.30;99.90
10437;DHT22;5265;50.006;9.202;2022-09-06T18:49:51;24.30;99.90
10437;DHT22;5265;50.006;9.202;2022-09-06T18:52:18;24.20;99.90
10437;DHT22;5265;50.006;9.202;2022-09-06T18:54:46;24.20;99.90
10437;DHT22;5265;50.006;9.202;2022-09-06T18:57:14;24.30;99.90
10437;DHT22;5265;50.006;9.202;2022-09-06T18:59:42;24.30;99.90
10437;DHT22;5265;50.006;9.202;2022-09-06T19:02:09;24.30;99.90
10437;DHT22;5265;50.006;9.202;2022-09-06T19:04:38;24.20;99.90
10437;DHT22;5265;50.006;9.202;2022-09-06T19:07:05;24.30;99.90
10437;DHT22;5265;50.006;9.202;2022-09-06T19:09:32;24.40;99.90
10437;DHT22;5265;50.006;9.202;2022-09-06T19:12:00;24.30;99.90
10437;DHT22;5265;50.006;9.202;2022-09-06T19:14:29;24.30;99.90
10437;DHT22;5265;50.006;9.202;2022-09-06T19:16:58;24.30;99.90
10437;DHT22;5265;50.006;9.202;2022-09-06T19:19:25;24.20;99.90
10437;DHT22;5265;50.006;9.202;2022-09-06T19:21:54;24.20;99.90
10437;DHT22;5265;50.006;9.202;2022-09-06T19:24:21;24.20;99.90
10437;DHT22;5265;50.006;9.202;2022-09-06T19:26:49;24.10;99.90
10437;DHT22;5265;50.006;9.202;2022-09-06T19:29:17;24.10;99.90
10437;DHT22;5265;50.006;9.202;2022-09-06T19:31:45;24.10;99.90
10437;DHT22;5265;50.006;9.202;2022-09-06T19:34:13;24.10;99.90
10437;DHT22;5265;50.006;9.202;2022-09-06T19:36:41;24.00;99.90
10437;DHT22;5265;50.006;9.202;2022-09-06T19:39:11;23.90;99.90
10437;DHT22;5265;50.006;9.202;2022-09-06T19:41:39;23.90;99.90
10437;DHT22;5265;50.006;9.202;2022-09-06T19:44:08;23.80;99.90
10437;DHT22;5265;50.006;9.202;2022-09-06T19:46:36;23.80;99.90
10437;DHT22;5265;50.006;9.202;2022-09-06T19:49:04;23.80;99.90
10437;DHT22;5265;50.006;9.202;2022-09-06T19:51:32;23.90;99.90
10437;DHT22;5265;50.006;9.202;2022-09-06T19:54:00;23.80;99.90
10437;DHT22;5265;50.006;9.202;2022-09-06T19:56:29;23.50;99.90
10437;DHT22;5265;50.006;9.202;2022-09-06T19:58:59;23.40;99.90
10437;DHT22;5265;50.006;9.202;2022-09-06T20:01:26;23.20;99.90
10437;DHT22;5265;50.006;9.202;2022-09-06T20:03:55;23.20;99.90
10437;DHT22;5265;50.006;9.202;2022-09-06T20:06:23;23.10;99.90
10437;DHT22;5265;50.006;9.202;2022-09-06T20:08:51;23.10;99.90
10437;DHT22;5265;50.006;9.202;2022-09-06T20:11:22;23.10;99.90
10437;DHT22;5265;50.006;9.202;2022-09-06T20:13:51;22.90;99.90
10437;DHT22;5265;50.006;9.202;2022-09-06T20:16:19;22.90;99.90
10437;DHT22;5265;50.006;9.202;2022-09-06T20:18:46;22.80;99.90
10437;DHT22;5265;50.006;9.202;2022-09-06T20:21:14;22.70;99.90
10437;DHT22;5265;50.006;9.202;2022-09-06T20:23:46;22.60;99.90
10437;DHT22;5265;50.006;9.202;2022-09-06T20:26:14;22.40;99.90
10437;DHT22;5265;50.006;9.202;2022-09-06T20:28:41;22.30;99.90
10437;DHT22;5265;50.006;9.202;2022-09-06T20:31:12;22.20;99.90
10437;DHT22;5265;50.006;9.202;2022-09-06T20:33:41;22.00;99.90
10437;DHT22;5265;50.006;9.202;2022-09-06T20:36:08;21.90;99.90
10437;DHT22;5265;50.006;9.202;2022-09-06T20:38:37;21.90;99.90
10437;DHT22;5265;50.006;9.202;2022-09-06T20:41:05;21.80;99.90
10437;DHT22;5265;50.006;9.202;2022-09-06T20:43:33;21.70;99.90
10437;DHT22;5265;50.006;9.202;2022-09-06T20:46:01;21.60;99.90
10437;DHT22;5265;50.006;9.202;2022-09-06T20:48:31;21.50;99.90
10437;DHT22;5265;50.006;9.202;2022-09-06T20:50:58;21.40;99.90
10437;DHT22;5265;50.006;9.202;2022-09-06T20:53:26;21.50;99.90
10437;DHT22;5265;50.006;9.202;2022-09-06T20:55:55;21.50;99.90
10437;DHT22;5265;50.006;9.202;2022-09-06T20:58:22;21.40;99.90
10437;DHT22;5265;50.006;9.202;2022-09-06T21:00:49;21.30;99.90
10437;DHT22;5265;50.006;9.202;2022-09-06T21:03:17;21.30;99.90
10437;DHT22;5265;50.006;9.202;2022-09-06T21:05:46;21.10;99.90
10437;DHT22;5265;50.006;9.202;2022-09-06T21:08:13;21.10;99.90
10437;DHT22;5265;50.006;9.202;2022-09-06T21:10:43;21.10;99.90
10437;DHT22;5265;50.006;9.202;2022-09-06T21:13:10;21.00;99.90
10437;DHT22;5265;50.006;9.202;2022-09-06T21:15:45;20.90;99.90
10437;DHT22;5265;50.006;9.202;2022-09-06T21:18:13;20.80;99.90
10437;DHT22;5265;50.006;9.202;2022-09-06T21:20:41;20.70;99.90
10437;DHT22;5265;50.006;9.202;2022-09-06T21:23:09;20.60;99.90
10437;DHT22;5265;50.006;9.202;2022-09-06T21:25:36;20.60;99.90
10437;DHT22;5265;50.006;9.202;2022-09-06T21:28:04;20.60;99.90
10437;DHT22;5265;50.006;9.202;2022-09-06T21:30:31;20.30;99.90
10437;DHT22;5265;50.006;9.202;2022-09-06T21:32:58;20.20;99.90
10437;DHT22;5265;50.006;9.202;2022-09-06T21:35:26;20.20;99.90
10437;DHT22;5265;50.006;9.202;2022-09-06T21:37:53;20.00;99.90
10437;DHT22;5265;50.006;9.202;2022-09-06T21:40:22;19.90;99.90
10437;DHT22;5265;50.006;9.202;2022-09-06T21:42:50;19.60;99.90
10437;DHT22;5265;50.006;9.202;2022-09-06T21:45:17;19.70;99.90
10437;DHT22;5265;50.006;9.202;2022-09-06T21:47:44;19.70;99.90
10437;DHT22;5265;50.006;9.202;2022-09-06T21:50:12;19.60;99.90
10437;DHT22;5265;50.006;9.202;2022-09-06T21:52:39;19.60;99.90
10437;DHT22;5265;50.006;9.202;2022-09-06T21:55:07;19.60;99.90
10437;DHT22;5265;50.006;9.202;2022-09-06T21:57:36;19.60;99.90
10437;DHT22;5265;50.006;9.202;2022-09-06T22:00:03;19.50;99.90
10437;DHT22;5265;50.006;9.202;2022-09-06T22:02:31;19.50;99.90
10437;DHT22;5265;50.006;9.202;2022-09-06T22:04:58;19.60;99.90
10437;DHT22;5265;50.006;9.202;2022-09-06T22:07:26;19.60;99.90
10437;DHT22;5265;50.006;9.202;2022-09-06T22:09:53;19.50;99.90
10437;DHT22;5265;50.006;9.202;2022-09-06T22:12:21;19.30;99.90
10437;DHT22;5265;50.006;9.202;2022-09-06T22:14:49;19.40;99.90
10437;DHT22;5265;50.006;9.202;2022-09-06T22:17:16;19.40;99.90
10437;DHT22;5265;50.006;9.202;2022-09-06T22:19:43;19.30;99.90
10437;DHT22;5265;50.006;9.202;2022-09-06T22:22:11;19.20;99.90
10437;DHT22;5265;50.006;9.202;2022-09-06T22:24:39;19.00;99.90
10437;DHT22;5265;50.006;9.202;2022-09-06T22:27:06;19.00;99.90
10437;DHT22;5265;50.006;9.202;2022-09-06T22:29:34;18.90;99.90
10437;DHT22;5265;50.006;9.202;2022-09-06T22:32:02;18.90;99.90
10437;DHT22;5265;50.006;9.202;2022-09-06T22:34:30;18.90;99.90
10437;DHT22;5265;50.006;9.202;2022-09-06T22:36:57;18.90;99.90
10437;DHT22;5265;50.006;9.202;2022-09-06T22:39:24;18.90;99.90
10437;DHT22;5265;50.006;9.202;2022-09-06T22:41:51;18.70;99.90
10437;DHT22;5265;50.006;9.202;2022-09-06T22:44:19;18.40;99.90
